createdAt,value
2023-03-03T00:00:08.397Z,37.40
2023-03-03T00:03:20.107Z,35.83
2023-03-03T00:06:21.740Z,37.03
2023-03-03T00:09:23.222Z,37.35
2023-03-03T00:12:28.548Z,37.70
2023-03-03T00:15:31.255Z,36.67
2023-03-03T00:18:37.350Z,34.92
2023-03-03T00:21:45.759Z,38.03
2023-03-03T00:24:47.321Z,38.40
2023-03-03T00:27:48.820Z,36.22
2023-03-03T00:30:52.315Z,35.03
2023-03-03T00:33:55.681Z,34.97
2023-03-03T00:36:58.424Z,33.00
2023-03-03T00:40:23.827Z,35.33
2023-03-03T00:43:33.180Z,35.42
2023-03-03T00:46:37.030Z,35.95
2023-03-03T00:49:39.455Z,34.78
2023-03-03T00:52:46.188Z,33.92
2023-03-03T00:55:49.685Z,35.80
2023-03-03T00:58:52.000Z,36.67
2023-03-03T01:01:55.889Z,35.13
2023-03-03T01:04:57.610Z,36.53
2023-03-03T01:07:59.282Z,36.17
2023-03-03T01:11:08.681Z,36.50
2023-03-03T01:14:10.226Z,35.92
2023-03-03T01:17:11.837Z,35.13
2023-03-03T01:20:15.316Z,35.88
2023-03-03T01:23:16.860Z,35.05
2023-03-03T01:26:18.581Z,35.88
2023-03-03T01:29:20.303Z,34.45
2023-03-03T01:32:22.423Z,34.22
2023-03-03T01:35:24.265Z,34.60
2023-03-03T01:38:26.085Z,35.60
2023-03-03T01:41:30.072Z,35.95
2023-03-03T01:44:31.629Z,35.25
2023-03-03T01:47:34.393Z,36.28
2023-03-03T01:50:47.014Z,34.17
2023-03-03T01:53:52.949Z,35.30
2023-03-03T01:56:58.337Z,35.88
2023-03-03T02:00:02.472Z,34.78
2023-03-03T02:03:14.166Z,34.55
2023-03-03T02:06:19.397Z,38.00
2023-03-03T02:09:36.833Z,35.63
2023-03-03T02:12:51.295Z,36.28
2023-03-03T02:18:54.596Z,34.47
2023-03-03T02:21:56.528Z,35.47
2023-03-03T02:25:02.002Z,35.10
2023-03-03T02:28:04.387Z,37.97
2023-03-03T02:31:13.423Z,35.65
2023-03-03T02:34:15.886Z,37.65
2023-03-03T02:37:19.568Z,38.08
2023-03-03T02:40:24.437Z,37.30
2023-03-03T02:43:32.386Z,35.78
2023-03-03T02:46:39.681Z,37.92
2023-03-03T02:49:42.960Z,35.03
2023-03-03T02:52:44.426Z,35.57
2023-03-03T02:55:45.972Z,36.30
2023-03-03T02:58:47.421Z,34.92
2023-03-03T03:01:49.641Z,35.80
2023-03-03T03:04:53.313Z,37.78
2023-03-03T03:07:58.144Z,34.50
2023-03-03T03:10:59.853Z,36.05
2023-03-03T03:14:03.852Z,33.28
2023-03-03T03:17:05.757Z,36.28
2023-03-03T03:20:07.540Z,37.67
2023-03-03T03:23:10.186Z,37.08
2023-03-03T03:26:12.183Z,33.83
2023-03-03T03:29:13.743Z,33.50
2023-03-03T03:32:15.254Z,35.17
2023-03-03T03:35:17.514Z,34.17
2023-03-03T03:43:00.276Z,31.48
2023-03-03T03:46:01.890Z,33.08
2023-03-03T03:49:04.400Z,32.95
2023-03-03T03:52:06.062Z,33.70
2023-03-03T03:55:09.761Z,34.35
2023-03-03T03:58:14.683Z,37.05
2023-03-03T04:01:16.729Z,35.33
2023-03-03T04:04:22.738Z,35.35
2023-03-03T04:07:25.027Z,37.92
2023-03-03T04:10:26.604Z,37.30
2023-03-03T04:13:31.837Z,35.30
2023-03-03T04:16:34.755Z,33.10
2023-03-03T04:19:36.491Z,33.25
2023-03-03T04:22:40.149Z,34.70
2023-03-03T04:25:41.829Z,33.90
2023-03-03T04:28:48.759Z,34.17
2023-03-03T04:31:50.661Z,33.63
2023-03-03T04:35:05.589Z,34.78
2023-03-03T04:38:09.704Z,33.03
2023-03-03T04:41:11.898Z,33.42
2023-03-03T04:44:14.222Z,35.00
2023-03-03T04:47:15.857Z,34.75
2023-03-03T04:50:17.617Z,34.85
2023-03-03T04:53:19.235Z,33.65
2023-03-03T04:56:21.191Z,33.88
2023-03-03T04:59:23.592Z,34.80
2023-03-03T05:02:25.318Z,35.20
2023-03-03T05:05:27.229Z,35.10
2023-03-03T05:08:28.739Z,34.45
2023-03-03T05:11:30.391Z,34.97
2023-03-03T05:14:32.061Z,35.30
2023-03-03T05:17:33.568Z,36.85
2023-03-03T05:20:35.010Z,35.17
2023-03-03T05:23:36.502Z,37.30
2023-03-03T05:26:38.254Z,37.08
2023-03-03T05:29:39.923Z,37.50
2023-03-03T05:32:41.496Z,34.67
2023-03-03T05:35:43.347Z,38.97
2023-03-03T05:38:44.856Z,36.88
2023-03-03T05:41:46.391Z,36.70
2023-03-03T05:44:47.945Z,38.75
2023-03-03T05:47:49.552Z,36.38
2023-03-03T05:50:51.016Z,35.75
2023-03-03T05:53:54.722Z,35.85
2023-03-03T05:56:57.589Z,39.72
2023-03-03T05:59:59.184Z,38.20
2023-03-03T06:03:00.944Z,36.65
2023-03-03T06:06:02.431Z,36.75
2023-03-03T06:09:03.962Z,37.13
2023-03-03T06:12:05.923Z,37.47
2023-03-03T06:15:08.546Z,38.45
2023-03-03T06:18:10.127Z,36.10
2023-03-03T06:21:11.730Z,38.88
2023-03-03T06:24:13.161Z,37.00
2023-03-03T06:27:14.629Z,37.58
2023-03-03T06:30:16.565Z,38.35
2023-03-03T06:33:18.031Z,36.45
2023-03-03T06:36:20.353Z,35.53
2023-03-03T06:39:21.823Z,38.65
2023-03-03T06:42:24.848Z,36.58
2023-03-03T06:45:26.334Z,38.35
2023-03-03T06:48:28.448Z,36.85
2023-03-03T06:51:35.422Z,38.35
2023-03-03T06:54:36.936Z,37.45
2023-03-03T06:57:38.577Z,37.13
2023-03-03T07:00:44.023Z,37.88
2023-03-03T07:03:45.757Z,37.78
2023-03-03T07:06:47.197Z,38.67
2023-03-03T07:09:51.445Z,43.13
2023-03-03T07:16:00.617Z,36.50
2023-03-03T07:19:03.547Z,37.40
2023-03-03T07:22:13.770Z,37.05
2023-03-03T07:25:26.797Z,36.95
2023-03-03T07:28:32.689Z,38.13
2023-03-03T07:31:37.546Z,35.08
2023-03-03T07:34:45.061Z,36.17
2023-03-03T07:37:46.692Z,37.47
2023-03-03T07:40:51.345Z,35.45
2023-03-03T07:44:00.082Z,37.00
2023-03-03T07:47:17.699Z,38.65
2023-03-03T07:50:21.552Z,34.88
2023-03-03T07:53:34.878Z,39.70
2023-03-03T07:56:36.712Z,38.53
2023-03-03T07:59:42.179Z,34.95
2023-03-03T08:02:56.491Z,38.08
2023-03-03T08:05:57.914Z,37.10
2023-03-03T08:09:24.744Z,38.47
2023-03-03T08:12:42.188Z,37.42
2023-03-03T08:15:45.573Z,36.90
2023-03-03T08:18:49.486Z,39.92
2023-03-03T08:21:52.009Z,36.88
2023-03-03T08:24:53.499Z,37.42
2023-03-03T08:27:55.030Z,36.47
2023-03-03T08:31:12.538Z,37.17
2023-03-03T08:34:18.115Z,37.58
2023-03-03T08:37:19.616Z,37.00
2023-03-03T08:40:21.200Z,35.85
2023-03-03T08:43:22.857Z,36.05
2023-03-03T08:46:24.364Z,35.60
2023-03-03T08:49:25.867Z,35.83
2023-03-03T08:52:27.298Z,36.80
2023-03-03T08:55:28.809Z,39.05
2023-03-03T08:58:35.497Z,34.88
2023-03-03T09:01:37.778Z,37.10
2023-03-03T09:04:39.560Z,35.53
2023-03-03T09:07:41.525Z,36.88
2023-03-03T09:10:43.036Z,35.83
2023-03-03T09:13:44.531Z,35.92
2023-03-03T09:16:50.803Z,34.33
2023-03-03T09:19:54.811Z,38.20
2023-03-03T09:22:56.476Z,35.95
2023-03-03T09:26:26.880Z,36.55
2023-03-03T09:29:37.778Z,34.10
2023-03-03T09:32:39.558Z,34.95
2023-03-03T09:35:42.463Z,36.45
2023-03-03T09:38:45.933Z,36.03
2023-03-03T09:42:12.255Z,35.80
2023-03-03T09:45:15.143Z,36.92
2023-03-03T09:48:30.523Z,36.75
2023-03-03T09:51:41.606Z,36.60
2023-03-03T09:54:54.245Z,35.38
2023-03-03T09:58:10.874Z,37.90
2023-03-03T10:01:34.714Z,37.67
2023-03-03T10:04:39.337Z,36.92
2023-03-03T10:08:31.696Z,37.33
2023-03-03T10:11:54.616Z,35.80
2023-03-03T10:15:03.466Z,38.67
2023-03-03T10:18:29.286Z,38.88
2023-03-03T10:21:43.740Z,36.92
2023-03-03T10:28:40.442Z,39.10
2023-03-03T10:31:57.300Z,38.15
2023-03-03T10:35:18.822Z,40.05
2023-03-03T10:38:44.044Z,39.72
2023-03-03T10:42:08.655Z,38.17
2023-03-03T10:45:32.062Z,39.20
2023-03-03T10:49:01.195Z,36.05
2023-03-03T10:52:31.742Z,36.95
2023-03-03T10:55:50.022Z,37.13
2023-03-03T10:59:13.318Z,39.15
2023-03-03T11:02:34.153Z,38.42
2023-03-03T11:05:50.722Z,40.90
2023-03-03T11:09:03.098Z,39.25
2023-03-03T11:12:21.474Z,40.60
2023-03-03T11:15:41.475Z,37.85
2023-03-03T11:18:55.128Z,41.25
2023-03-03T11:22:23.741Z,40.53
2023-03-03T11:25:44.011Z,42.42
2023-03-03T11:29:07.026Z,38.35
2023-03-03T11:32:32.878Z,43.08
2023-03-03T11:35:44.290Z,39.22
2023-03-03T11:39:01.119Z,42.05
2023-03-03T11:42:23.619Z,44.33
2023-03-03T11:45:34.186Z,43.55
2023-03-03T11:48:42.555Z,41.50
2023-03-03T11:52:06.425Z,41.28
2023-03-03T11:55:22.545Z,42.17
2023-03-03T11:58:30.957Z,43.22
2023-03-03T12:01:39.253Z,42.25
2023-03-03T12:04:51.957Z,41.75
2023-03-03T12:08:18.117Z,42.55
2023-03-03T12:11:23.176Z,42.05
2023-03-03T12:15:06.837Z,43.35
2023-03-03T12:18:31.645Z,40.55
2023-03-03T12:21:33.137Z,44.10
2023-03-03T12:24:34.557Z,42.55
2023-03-03T12:27:41.205Z,41.53
2023-03-03T12:30:58.188Z,40.47
2023-03-03T12:34:08.773Z,42.78
2023-03-03T12:37:28.643Z,44.30
2023-03-03T12:40:38.244Z,40.78
2023-03-03T12:43:51.480Z,40.65
2023-03-03T12:47:09.924Z,40.88
2023-03-03T12:50:23.243Z,41.83
2023-03-03T12:53:33.841Z,43.78
2023-03-03T12:56:55.176Z,43.58
2023-03-03T13:00:23.058Z,43.10
2023-03-03T13:03:54.919Z,42.65
2023-03-03T13:07:12.568Z,43.50
2023-03-03T13:10:24.514Z,44.42
2023-03-03T13:13:39.979Z,43.72
2023-03-03T13:17:15.231Z,43.13
2023-03-03T13:20:30.173Z,40.97
2023-03-03T13:23:52.456Z,43.75
2023-03-03T13:26:58.589Z,41.75
2023-03-03T13:30:14.521Z,44.03
2023-03-03T13:33:25.574Z,43.88
2023-03-03T13:36:59.010Z,43.13
2023-03-03T13:40:11.080Z,41.45
2023-03-03T13:43:22.232Z,43.58
2023-03-03T13:46:33.943Z,43.20
2023-03-03T13:49:53.976Z,46.13
2023-03-03T13:53:17.520Z,43.70
2023-03-03T13:56:49.679Z,45.67
2023-03-03T14:00:15.833Z,43.75
2023-03-03T14:03:26.370Z,41.08
2023-03-03T14:06:29.393Z,42.20
2023-03-03T14:09:55.513Z,42.33
2023-03-03T14:13:05.846Z,43.00
2023-03-03T14:16:16.378Z,45.35
2023-03-03T14:19:45.255Z,44.10
2023-03-03T14:22:54.652Z,44.72
2023-03-03T14:26:05.369Z,42.78
2023-03-03T14:29:21.780Z,45.60
2023-03-03T14:32:39.366Z,43.88
2023-03-03T14:35:57.178Z,43.20
2023-03-03T14:38:59.014Z,44.38
2023-03-03T14:42:02.372Z,43.97
2023-03-03T14:45:29.055Z,43.38
2023-03-03T14:48:32.831Z,44.28
2023-03-03T14:51:43.360Z,42.53
2023-03-03T14:55:27.736Z,42.92
2023-03-03T14:58:41.469Z,46.15
2023-03-03T15:01:43.370Z,44.63
2023-03-03T15:04:46.409Z,43.35
2023-03-03T15:08:14.369Z,44.83
2023-03-03T15:11:21.270Z,44.45
2023-03-03T15:14:31.915Z,43.90
2023-03-03T15:17:54.153Z,44.80
2023-03-03T15:21:10.572Z,45.13
2023-03-03T15:24:34.367Z,43.60
2023-03-03T15:27:44.278Z,45.93
2023-03-03T15:30:53.420Z,46.58
2023-03-03T15:34:11.242Z,45.83
2023-03-03T15:37:24.932Z,44.97
2023-03-03T15:40:45.978Z,44.60
2023-03-03T15:44:06.409Z,46.22
2023-03-03T15:47:44.781Z,45.60
2023-03-03T15:51:20.576Z,47.10
2023-03-03T15:54:37.092Z,43.90
2023-03-03T15:57:41.699Z,46.67
2023-03-03T16:01:20.247Z,46.58
2023-03-03T16:04:26.153Z,47.05
2023-03-03T16:07:45.192Z,45.58
2023-03-03T16:10:55.636Z,48.58
2023-03-03T16:14:15.703Z,46.85
2023-03-03T16:17:30.312Z,48.75
2023-03-03T16:20:57.331Z,47.53
2023-03-03T16:24:08.609Z,47.45
2023-03-03T16:27:35.924Z,46.88
2023-03-03T16:31:03.093Z,45.67
2023-03-03T16:34:17.677Z,49.22
2023-03-03T16:37:34.650Z,48.22
2023-03-03T16:40:47.237Z,48.10
2023-03-03T16:44:12.918Z,47.38
2023-03-03T16:47:41.114Z,46.83
2023-03-03T16:51:04.144Z,46.88
2023-03-03T16:54:16.532Z,46.97
2023-03-03T16:57:56.694Z,46.60
2023-03-03T17:01:16.809Z,47.17
2023-03-03T17:04:39.516Z,48.17
2023-03-03T17:08:21.816Z,49.60
2023-03-03T17:11:43.413Z,49.72
2023-03-03T17:15:09.474Z,48.30
2023-03-03T17:18:54.441Z,44.95
2023-03-03T17:22:12.664Z,49.15
2023-03-03T17:25:24.697Z,50.55
2023-03-03T17:28:34.680Z,51.45
2023-03-03T17:31:45.176Z,52.03
2023-03-03T17:34:58.728Z,53.30
2023-03-03T17:38:26.710Z,55.70
2023-03-03T17:41:31.090Z,50.38
2023-03-03T17:44:55.856Z,49.50
2023-03-03T17:51:30.265Z,50.35
2023-03-03T17:55:04.455Z,74.00
2023-03-03T17:58:23.012Z,58.40
2023-03-03T18:01:48.889Z,51.47
2023-03-03T18:05:37.326Z,51.17
2023-03-03T18:09:15.629Z,45.13
2023-03-03T18:12:36.301Z,46.47
2023-03-03T18:16:11.091Z,48.60
2023-03-03T18:19:56.479Z,47.15
2023-03-03T18:23:17.660Z,48.08
2023-03-03T18:26:36.030Z,48.83
2023-03-03T18:29:37.668Z,48.03
2023-03-03T18:33:06.121Z,49.35
2023-03-03T18:36:37.372Z,51.03
2023-03-03T18:39:44.296Z,48.33
2023-03-03T18:42:46.386Z,48.78
2023-03-03T18:45:50.451Z,52.05
2023-03-03T18:49:08.081Z,47.63
2023-03-03T18:52:32.921Z,46.58
2023-03-03T18:55:43.860Z,48.75
2023-03-03T18:58:45.331Z,51.72
2023-03-03T19:01:48.486Z,50.80
2023-03-03T19:05:12.383Z,47.60
2023-03-03T19:08:57.905Z,48.03
2023-03-03T19:11:59.365Z,49.60
2023-03-03T19:15:00.897Z,44.72
2023-03-03T19:18:17.409Z,49.05
2023-03-03T19:21:24.997Z,59.45
2023-03-03T19:24:30.571Z,50.67
2023-03-03T19:30:56.385Z,49.00
2023-03-03T19:33:57.929Z,49.70
2023-03-03T19:37:07.408Z,47.35
2023-03-03T19:40:14.538Z,47.95
2023-03-03T19:43:40.822Z,94.63
2023-03-03T19:47:01.535Z,52.50
2023-03-03T19:50:18.477Z,49.00
2023-03-03T19:53:42.823Z,46.92
2023-03-03T19:56:52.681Z,45.92
2023-03-03T20:00:26.896Z,47.17
2023-03-03T20:03:52.851Z,48.20
2023-03-03T20:07:00.001Z,52.00
2023-03-03T20:10:08.192Z,52.58
2023-03-03T20:13:16.357Z,50.13
2023-03-03T20:16:40.659Z,50.42
2023-03-03T20:20:01.970Z,50.40
2023-03-03T20:23:27.441Z,50.78
2023-03-03T20:26:52.079Z,51.40
2023-03-03T20:33:11.400Z,47.03
2023-03-03T20:36:25.005Z,43.75
2023-03-03T20:39:38.465Z,53.77
2023-03-03T20:42:56.541Z,49.60
2023-03-03T20:46:10.163Z,48.00
2023-03-03T20:49:30.381Z,50.80
2023-03-03T20:52:40.745Z,46.97
2023-03-03T20:56:00.974Z,48.83
2023-03-03T20:59:21.190Z,48.28
2023-03-03T21:02:46.933Z,49.17
2023-03-03T21:06:09.310Z,49.25
2023-03-03T21:09:32.879Z,49.03
2023-03-03T21:12:34.474Z,48.85
2023-03-03T21:15:36.011Z,47.92
2023-03-03T21:18:37.643Z,47.17
2023-03-03T21:21:41.966Z,49.38
2023-03-03T21:24:50.530Z,49.80
2023-03-03T21:27:52.045Z,50.33
2023-03-03T21:31:09.026Z,52.20
2023-03-03T21:34:22.260Z,48.03
2023-03-03T21:37:55.406Z,48.40
2023-03-03T21:41:00.812Z,51.45
2023-03-03T21:44:22.295Z,50.92
2023-03-03T21:47:28.614Z,50.78
2023-03-03T21:50:32.623Z,46.45
2023-03-03T21:53:34.796Z,49.13
2023-03-03T21:56:37.872Z,50.17
2023-03-03T21:59:40.031Z,47.28
2023-03-03T22:02:41.433Z,50.10
2023-03-03T22:05:42.890Z,46.67
2023-03-03T22:08:44.402Z,47.47
2023-03-03T22:11:45.927Z,45.70
2023-03-03T22:14:47.565Z,44.75
2023-03-03T22:17:49.058Z,47.60
2023-03-03T22:20:50.647Z,42.78
2023-03-03T22:23:52.145Z,44.10
2023-03-03T22:26:53.691Z,44.05
2023-03-03T22:29:55.178Z,43.10
2023-03-03T22:32:56.780Z,42.42
2023-03-03T22:35:58.527Z,48.28
2023-03-03T22:39:00.988Z,44.45
2023-03-03T22:42:02.481Z,44.80
2023-03-03T22:45:04.426Z,44.10
2023-03-03T22:48:06.382Z,44.03
2023-03-03T22:51:07.918Z,45.92
2023-03-03T22:54:09.512Z,45.25
2023-03-03T22:57:10.995Z,44.78
2023-03-03T23:00:13.465Z,41.80
2023-03-03T23:03:15.922Z,42.35
2023-03-03T23:06:17.433Z,43.00
2023-03-03T23:09:18.950Z,42.92
2023-03-03T23:12:20.383Z,42.80
2023-03-03T23:15:22.459Z,44.90
2023-03-03T23:18:23.965Z,40.58
2023-03-03T23:21:25.427Z,41.22
2023-03-03T23:24:27.007Z,40.63
2023-03-03T23:27:28.602Z,39.65
2023-03-03T23:30:30.057Z,44.47
2023-03-03T23:33:31.461Z,41.58
2023-03-03T23:36:32.914Z,41.72
2023-03-03T23:39:34.417Z,42.45
2023-03-03T23:42:35.858Z,53.78
2023-03-03T23:45:37.318Z,50.92
2023-03-03T23:48:38.776Z,43.60
2023-03-03T23:51:40.313Z,38.53
2023-03-03T23:54:41.736Z,38.15
2023-03-03T23:57:43.338Z,36.03
